createdAt,value
2022-11-28T00:00:39.453Z,7.08
2022-11-28T00:01:42.094Z,7.09
2022-11-28T00:02:45.193Z,7.08
2022-11-28T00:03:48.984Z,7.08
2022-11-28T00:04:52.452Z,7.07
2022-11-28T00:05:55.234Z,7.06
2022-11-28T00:06:59.097Z,7.05
2022-11-28T00:08:02.313Z,6.99
2022-11-28T00:09:05.003Z,7
2022-11-28T00:10:07.681Z,6.99
2022-11-28T00:11:10.473Z,6.99
2022-11-28T00:12:13.244Z,7
2022-11-28T00:13:15.904Z,7
2022-11-28T00:14:18.559Z,7.01
2022-11-28T00:15:21.375Z,7
2022-11-28T00:16:24.458Z,7
2022-11-28T00:17:27.187Z,7
2022-11-28T00:18:30.420Z,7.01
2022-11-28T00:19:33.022Z,7.01
2022-11-28T00:20:35.663Z,7
2022-11-28T00:21:38.344Z,7.01
2022-11-28T00:22:40.986Z,7
2022-11-28T00:23:43.782Z,7.01
2022-11-28T00:24:46.391Z,7.02
2022-11-28T00:25:48.991Z,7.04
2022-11-28T00:26:51.759Z,6.98
2022-11-28T00:27:54.664Z,6.94
2022-11-28T00:28:57.302Z,6.94
2022-11-28T00:29:59.919Z,6.93
2022-11-28T00:31:02.679Z,6.93
2022-11-28T00:32:05.603Z,6.94
2022-11-28T00:33:08.772Z,6.95
2022-11-28T00:34:11.392Z,6.94
2022-11-28T00:35:14.061Z,6.87
2022-11-28T00:36:16.673Z,6.86
2022-11-28T00:37:19.575Z,6.87
2022-11-28T00:38:22.449Z,6.88
2022-11-28T00:39:25.113Z,6.9
2022-11-28T00:40:27.745Z,6.93
2022-11-28T00:41:30.432Z,6.95
2022-11-28T00:42:33.128Z,6.96
2022-11-28T00:43:35.911Z,6.97
2022-11-28T00:44:38.532Z,6.97
2022-11-28T00:45:41.898Z,6.99
2022-11-28T00:46:44.703Z,7
2022-11-28T00:47:47.913Z,6.99
2022-11-28T00:48:50.527Z,7.01
2022-11-28T00:49:53.163Z,7.03
2022-11-28T00:50:55.745Z,7.05
2022-11-28T00:51:58.355Z,7.06
2022-11-28T00:53:00.985Z,7.04
2022-11-28T00:54:03.664Z,7.05
2022-11-28T00:55:06.536Z,7.06
2022-11-28T00:56:09.221Z,7.07
2022-11-28T00:57:11.837Z,7.08
2022-11-28T00:58:14.602Z,7.09
2022-11-28T00:59:18.399Z,7.1
2022-11-28T01:00:20.909Z,7.1
2022-11-28T01:01:23.917Z,7.12
2022-11-28T01:02:26.948Z,7.13
2022-11-28T01:03:29.960Z,7.13
2022-11-28T01:04:32.612Z,7.13
2022-11-28T01:05:35.227Z,7.13
2022-11-28T01:06:38.097Z,7.15
2022-11-28T01:07:40.888Z,7.15
2022-11-28T01:08:43.590Z,7.15
2022-11-28T01:09:46.816Z,7.14
2022-11-28T01:10:49.416Z,7.11
2022-11-28T01:11:52.094Z,7.05
2022-11-28T01:12:54.899Z,6.91
2022-11-28T01:13:57.641Z,6.81
2022-11-28T01:15:00.390Z,6.73
2022-11-28T01:16:03.346Z,6.72
2022-11-28T01:17:06.047Z,6.74
2022-11-28T01:18:08.798Z,6.78
2022-11-28T01:19:11.576Z,6.82
2022-11-28T01:20:14.226Z,6.84
2022-11-28T01:21:17.052Z,6.88
2022-11-28T01:22:19.647Z,6.91
2022-11-28T01:23:22.302Z,6.9
2022-11-28T01:24:25.184Z,6.89
2022-11-28T01:25:27.851Z,6.87
2022-11-28T01:26:30.495Z,6.84
2022-11-28T01:27:33.132Z,6.85
2022-11-28T01:28:35.779Z,6.87
2022-11-28T01:29:38.579Z,6.9
2022-11-28T01:30:41.290Z,6.9
2022-11-28T01:31:44.126Z,6.91
2022-11-28T01:32:47.142Z,6.93
2022-11-28T01:33:50.145Z,6.95
2022-11-28T01:34:53.126Z,6.97
2022-11-28T01:35:55.783Z,6.94
2022-11-28T01:36:58.434Z,6.9
2022-11-28T01:38:01.017Z,6.91
2022-11-28T01:39:03.704Z,6.92
2022-11-28T01:40:06.342Z,6.94
2022-11-28T01:41:08.959Z,6.95
2022-11-28T01:42:11.628Z,6.97
2022-11-28T01:43:14.248Z,6.98
2022-11-28T01:44:16.881Z,7
2022-11-28T01:45:19.629Z,7.01
2022-11-28T01:46:22.444Z,7.03
2022-11-28T01:47:25.140Z,7.03
2022-11-28T01:48:27.756Z,7.04
2022-11-28T01:49:30.517Z,7.05
2022-11-28T01:50:33.245Z,7.05
2022-11-28T01:51:36.134Z,7.03
2022-11-28T01:52:38.761Z,6.99
2022-11-28T01:53:42.202Z,7.01
2022-11-28T01:54:45.228Z,7.03
2022-11-28T01:55:47.865Z,7.06
2022-11-28T01:56:50.527Z,7.07
2022-11-28T01:57:53.176Z,7.07
2022-11-28T01:58:55.763Z,7.08
2022-11-28T01:59:58.424Z,7.07
2022-11-28T02:01:01.380Z,7.07
2022-11-28T02:02:04.808Z,7.08
2022-11-28T02:03:07.783Z,7.07
2022-11-28T02:04:10.405Z,7.07
2022-11-28T02:05:13.129Z,7.06
2022-11-28T02:06:15.873Z,7.07
2022-11-28T02:07:18.601Z,7.08
2022-11-28T02:08:21.330Z,7.08
2022-11-28T02:09:23.950Z,7.09
2022-11-28T02:10:26.571Z,7.08
2022-11-28T02:11:29.197Z,7.08
2022-11-28T02:12:31.850Z,7.09
2022-11-28T02:13:34.960Z,7.08
2022-11-28T02:14:37.610Z,7.09
2022-11-28T02:15:40.251Z,7.08
2022-11-28T02:16:43.400Z,7.09
2022-11-28T02:17:46.204Z,7.09
2022-11-28T02:18:50.993Z,7.08
2022-11-28T02:19:53.652Z,7.07
2022-11-28T02:20:56.381Z,7.05
2022-11-28T02:21:59.152Z,7.03
2022-11-28T02:23:01.777Z,6.98
2022-11-28T02:24:04.383Z,6.96
2022-11-28T02:25:07.084Z,6.93
2022-11-28T02:26:09.792Z,6.92
2022-11-28T02:27:12.429Z,6.95
2022-11-28T02:28:15.104Z,6.95
2022-11-28T02:29:17.928Z,6.95
2022-11-28T02:30:20.530Z,6.95
2022-11-28T02:31:23.374Z,6.91
2022-11-28T02:32:26.252Z,6.86
2022-11-28T02:33:29.025Z,6.86
2022-11-28T02:34:31.605Z,6.86
2022-11-28T02:35:34.240Z,6.85
2022-11-28T02:36:37.011Z,6.84
2022-11-28T02:37:39.747Z,6.84
2022-11-28T02:38:42.626Z,6.82
2022-11-28T02:39:45.478Z,6.8
2022-11-28T02:40:48.116Z,6.79
2022-11-28T02:41:50.767Z,6.8
2022-11-28T02:42:53.629Z,6.81
2022-11-28T02:44:04.673Z,6.8
2022-11-28T02:45:06.979Z,6.79
2022-11-28T02:46:09.604Z,6.8
2022-11-28T02:47:12.778Z,6.82
2022-11-28T02:48:15.582Z,6.84
2022-11-28T02:49:18.362Z,6.85
2022-11-28T02:50:21.008Z,6.87
2022-11-28T02:51:23.625Z,6.89
2022-11-28T02:52:26.378Z,6.88
2022-11-28T02:53:29.357Z,6.88
2022-11-28T02:54:32.035Z,6.9
2022-11-28T02:55:34.667Z,6.89
2022-11-28T02:56:37.304Z,6.89
2022-11-28T02:57:40.172Z,6.88
2022-11-28T02:58:42.830Z,6.9
2022-11-28T02:59:45.532Z,6.92
2022-11-28T03:00:48.535Z,6.92
2022-11-28T03:01:51.305Z,6.93
2022-11-28T03:02:54.242Z,6.93
2022-11-28T03:03:56.948Z,6.94
2022-11-28T03:04:59.700Z,6.96
2022-11-28T03:06:02.323Z,6.96
2022-11-28T03:07:04.996Z,6.92
2022-11-28T03:08:07.762Z,6.89
2022-11-28T03:09:10.519Z,6.85
2022-11-28T03:10:13.172Z,6.82
2022-11-28T03:11:15.773Z,6.82
2022-11-28T03:12:18.487Z,6.84
2022-11-28T03:13:21.095Z,6.85
2022-11-28T03:14:23.750Z,6.83
2022-11-28T03:15:26.401Z,6.85
2022-11-28T03:16:29.425Z,6.87
2022-11-28T03:17:32.183Z,6.88
2022-11-28T03:18:34.836Z,6.89
2022-11-28T03:19:37.591Z,6.89
2022-11-28T03:20:40.316Z,6.87
2022-11-28T03:21:42.948Z,6.87
2022-11-28T03:22:48.296Z,6.89
2022-11-28T03:23:50.884Z,6.9
2022-11-28T03:24:53.627Z,6.91
2022-11-28T03:25:56.238Z,6.92
2022-11-28T03:26:58.844Z,6.92
2022-11-28T03:28:01.743Z,6.92
2022-11-28T03:29:04.560Z,6.92
2022-11-28T03:30:07.491Z,6.91
2022-11-28T03:31:12.793Z,6.92
2022-11-28T03:32:15.343Z,6.92
2022-11-28T03:33:18.234Z,6.92
2022-11-28T03:34:20.899Z,6.93
2022-11-28T03:35:23.650Z,6.93
2022-11-28T03:36:27.315Z,6.93
2022-11-28T03:37:29.982Z,6.93
2022-11-28T03:38:32.651Z,6.89
2022-11-28T03:39:35.404Z,6.84
2022-11-28T03:40:38.144Z,6.8
2022-11-28T03:41:40.779Z,6.82
2022-11-28T03:42:43.408Z,6.8
2022-11-28T03:43:46.062Z,6.77
2022-11-28T03:44:48.699Z,6.75
2022-11-28T03:45:51.352Z,6.76
2022-11-28T03:46:54.152Z,6.77
2022-11-28T03:47:56.878Z,6.8
2022-11-28T03:48:59.531Z,6.81
2022-11-28T03:50:02.208Z,6.8
2022-11-28T03:51:05.003Z,6.82
2022-11-28T03:52:07.750Z,6.82
2022-11-28T03:53:10.397Z,6.83
2022-11-28T03:54:13.010Z,6.83
2022-11-28T03:55:15.771Z,6.82
2022-11-28T03:56:18.510Z,6.84
2022-11-28T03:57:21.162Z,6.84
2022-11-28T03:58:23.789Z,6.81
2022-11-28T03:59:26.425Z,6.79
2022-11-28T04:00:29.120Z,6.79
2022-11-28T04:01:32.176Z,6.8
2022-11-28T04:02:35.064Z,6.8
2022-11-28T04:03:37.779Z,6.81
2022-11-28T04:04:41.723Z,6.82
2022-11-28T04:05:44.632Z,6.8
2022-11-28T04:06:47.318Z,6.8
2022-11-28T04:07:50.261Z,6.81
2022-11-28T04:08:53.000Z,6.7
2022-11-28T04:09:55.600Z,6.68
2022-11-28T04:10:58.355Z,6.68
2022-11-28T04:12:01.074Z,6.67
2022-11-28T04:13:03.704Z,6.67
2022-11-28T04:14:06.337Z,6.68
2022-11-28T04:15:08.984Z,6.69
2022-11-28T04:16:11.790Z,6.71
2022-11-28T04:17:14.468Z,6.73
2022-11-28T04:18:17.089Z,6.74
2022-11-28T04:19:19.737Z,6.75
2022-11-28T04:20:22.369Z,6.75
2022-11-28T04:21:24.987Z,6.75
2022-11-28T04:22:27.759Z,6.76
2022-11-28T04:23:30.464Z,6.73
2022-11-28T04:24:33.127Z,6.7
2022-11-28T04:25:35.789Z,6.7
2022-11-28T04:26:38.531Z,6.68
2022-11-28T04:27:41.327Z,6.67
2022-11-28T04:28:44.204Z,6.66
2022-11-28T04:29:46.875Z,6.63
2022-11-28T04:30:49.526Z,6.6
2022-11-28T04:31:52.309Z,6.58
2022-11-28T04:32:55.052Z,6.55
2022-11-28T04:33:57.717Z,6.53
2022-11-28T04:35:00.369Z,6.48
2022-11-28T04:36:03.010Z,6.49
2022-11-28T04:37:10.252Z,6.51
2022-11-28T04:38:12.701Z,6.53
2022-11-28T04:39:15.633Z,6.55
2022-11-28T04:40:18.252Z,6.56
2022-11-28T04:41:20.929Z,6.56
2022-11-28T04:42:23.733Z,6.57
2022-11-28T04:43:26.435Z,6.57
2022-11-28T04:44:29.067Z,6.57
2022-11-28T04:45:31.916Z,6.55
2022-11-28T04:46:34.585Z,6.54
2022-11-28T04:47:37.248Z,6.47
2022-11-28T04:48:40.121Z,6.35
2022-11-28T04:49:42.943Z,6.28
2022-11-28T04:50:45.546Z,6.26
2022-11-28T04:51:48.177Z,6.26
2022-11-28T04:52:50.825Z,6.28
2022-11-28T04:53:53.552Z,6.29
2022-11-28T04:54:56.343Z,6.31
2022-11-28T04:55:58.922Z,6.31
2022-11-28T04:57:01.619Z,6.3
2022-11-28T04:58:04.319Z,6.31
2022-11-28T04:59:07.095Z,6.31
2022-11-28T05:00:09.679Z,6.3
2022-11-28T05:01:12.523Z,6.3
2022-11-28T05:02:15.398Z,6.32
2022-11-28T05:03:18.044Z,6.32
2022-11-28T05:04:20.720Z,6.31
2022-11-28T05:05:23.364Z,6.3
2022-11-28T05:06:25.980Z,6.28
2022-11-28T05:07:28.801Z,6.28
2022-11-28T05:08:31.515Z,6.27
2022-11-28T05:09:34.320Z,6.27
2022-11-28T05:10:37.109Z,6.26
2022-11-28T05:11:39.775Z,6.28
2022-11-28T05:12:42.385Z,6.3
2022-11-28T05:13:45.391Z,6.32
2022-11-28T05:14:48.139Z,6.35
2022-11-28T05:15:50.819Z,6.38
2022-11-28T05:16:53.914Z,6.39
2022-11-28T05:17:56.815Z,6.41
2022-11-28T05:18:59.430Z,6.41
2022-11-28T05:20:02.083Z,6.43
2022-11-28T05:21:04.738Z,6.44
2022-11-28T05:22:07.376Z,6.44
2022-11-28T05:23:10.010Z,6.46
2022-11-28T05:24:12.901Z,6.46
2022-11-28T05:25:15.665Z,6.46
2022-11-28T05:26:18.998Z,6.42
2022-11-28T05:27:21.626Z,6.41
2022-11-28T05:28:24.278Z,6.4
2022-11-28T05:29:27.060Z,6.39
2022-11-28T05:30:29.783Z,6.41
2022-11-28T05:31:32.640Z,6.42
2022-11-28T05:32:35.380Z,6.43
2022-11-28T05:33:38.626Z,6.43
2022-11-28T05:34:42.142Z,6.42
2022-11-28T05:35:45.219Z,6.43
2022-11-28T05:36:47.880Z,6.42
2022-11-28T05:37:51.092Z,6.42
2022-11-28T05:38:53.696Z,6.36
2022-11-28T05:39:56.315Z,6.29
2022-11-28T05:40:59.128Z,6.27
2022-11-28T05:42:01.895Z,6.21
2022-11-28T05:43:04.537Z,6.2
2022-11-28T05:44:07.166Z,6.17
2022-11-28T05:45:09.927Z,6.16
2022-11-28T05:46:13.420Z,6.16
2022-11-28T05:47:16.058Z,6.17
2022-11-28T05:48:18.726Z,6.18
2022-11-28T05:49:21.363Z,6.16
2022-11-28T05:50:24.030Z,6.11
2022-11-28T05:51:26.649Z,6.08
2022-11-28T05:52:29.333Z,6.07
2022-11-28T05:53:31.985Z,6.08
2022-11-28T05:54:34.903Z,6.1
2022-11-28T05:55:37.769Z,6.11
2022-11-28T05:56:42.893Z,6.13
2022-11-28T05:57:45.457Z,6.16
2022-11-28T05:58:48.054Z,6.16
2022-11-28T05:59:50.679Z,6.16
2022-11-28T06:00:53.419Z,6.17
2022-11-28T06:01:56.381Z,6.18
2022-11-28T06:03:02.109Z,6.2
2022-11-28T06:04:04.910Z,6.23
2022-11-28T06:05:40.815Z,6.27
2022-11-28T06:06:29.530Z,6.27
2022-11-28T06:07:32.324Z,6.27
2022-11-28T06:08:35.033Z,6.21
2022-11-28T06:09:37.675Z,6.2
2022-11-28T06:10:40.297Z,6.19
2022-11-28T06:11:42.979Z,6.15
2022-11-28T06:12:45.947Z,6.11
2022-11-28T06:13:48.670Z,6.1
2022-11-28T06:14:51.319Z,6.11
2022-11-28T06:15:53.927Z,6.11
2022-11-28T06:16:57.824Z,6.1
2022-11-28T06:18:00.629Z,6.11
2022-11-28T06:19:03.929Z,6.15
2022-11-28T06:20:07.687Z,6.18
2022-11-28T06:21:10.320Z,6.17
2022-11-28T06:22:12.990Z,6.17
2022-11-28T06:23:15.611Z,6.18
2022-11-28T06:24:18.292Z,6.17
2022-11-28T06:25:21.124Z,6.15
2022-11-28T06:26:23.761Z,6.13
2022-11-28T06:27:26.430Z,6.14
2022-11-28T06:28:29.184Z,6.16
2022-11-28T06:29:31.929Z,6.15
2022-11-28T06:30:34.552Z,6.08
2022-11-28T06:31:37.362Z,5.99
2022-11-28T06:32:40.173Z,6
2022-11-28T06:33:42.955Z,6.02
2022-11-28T06:34:45.586Z,6.04
2022-11-28T06:35:48.193Z,6.04
2022-11-28T06:36:50.868Z,6.02
2022-11-28T06:37:54.916Z,6.03
2022-11-28T06:38:57.510Z,6.04
2022-11-28T06:40:00.243Z,6.03
2022-11-28T06:41:02.926Z,6.04
2022-11-28T06:42:05.828Z,6.05
2022-11-28T06:43:08.431Z,6.05
2022-11-28T06:44:11.209Z,6.05
2022-11-28T06:45:14.535Z,6.06
2022-11-28T06:46:17.517Z,6.06
2022-11-28T06:47:20.171Z,6.07
2022-11-28T06:48:22.968Z,6.1
2022-11-28T06:49:25.719Z,6.13
2022-11-28T06:50:28.356Z,6.16
2022-11-28T06:51:31.030Z,6.19
2022-11-28T06:52:33.669Z,6.19
2022-11-28T06:53:36.327Z,6.2
2022-11-28T06:54:38.958Z,6.22
2022-11-28T06:55:41.597Z,6.23
2022-11-28T06:56:44.303Z,6.21
2022-11-28T06:57:46.918Z,6.22
2022-11-28T06:58:50.164Z,6.23
2022-11-28T06:59:52.872Z,6.24
2022-11-28T07:00:55.751Z,6.27
2022-11-28T07:02:27.274Z,6.27
2022-11-28T07:03:30.136Z,6.26
2022-11-28T07:04:32.796Z,6.27
2022-11-28T07:05:35.348Z,6.27
2022-11-28T07:06:38.003Z,6.26
2022-11-28T07:07:54.343Z,6.27
2022-11-28T07:08:56.921Z,6.27
2022-11-28T07:09:59.476Z,6.28
2022-11-28T07:11:02.119Z,6.3
2022-11-28T07:12:04.744Z,6.31
2022-11-28T07:13:07.402Z,6.32
2022-11-28T07:14:10.288Z,6.34
2022-11-28T07:15:13.016Z,6.33
2022-11-28T07:16:16.165Z,6.33
2022-11-28T07:17:18.965Z,6.33
2022-11-28T07:18:21.617Z,6.16
2022-11-28T07:19:24.372Z,6.08
2022-11-28T07:20:27.119Z,6.07
2022-11-28T07:21:29.792Z,6.09
2022-11-28T07:22:32.501Z,6.14
2022-11-28T07:23:35.713Z,6.15
2022-11-28T07:24:38.373Z,6.19
2022-11-28T07:25:41.494Z,6.22
2022-11-28T07:26:44.152Z,6.23
2022-11-28T07:27:46.767Z,6.26
2022-11-28T07:28:49.383Z,6.28
2022-11-28T07:29:52.011Z,6.31
2022-11-28T07:30:54.785Z,6.35
2022-11-28T07:31:57.986Z,6.4
2022-11-28T07:33:00.727Z,6.44
2022-11-28T07:34:03.941Z,6.43
2022-11-28T07:35:06.727Z,6.43
2022-11-28T07:36:09.476Z,6.45
2022-11-28T07:37:12.081Z,6.47
2022-11-28T07:38:14.699Z,6.5
2022-11-28T07:39:17.307Z,6.52
2022-11-28T07:40:19.917Z,6.53
2022-11-28T07:41:27.450Z,6.52
2022-11-28T07:42:30.008Z,6.53
2022-11-28T07:43:32.637Z,6.56
2022-11-28T07:44:35.284Z,6.57
2022-11-28T07:46:00.337Z,6.57
2022-11-28T07:47:00.070Z,6.58
2022-11-28T07:48:02.730Z,6.61
2022-11-28T07:49:05.344Z,6.64
2022-11-28T07:50:07.990Z,6.66
2022-11-28T07:51:10.690Z,6.69
2022-11-28T07:52:13.353Z,6.68
2022-11-28T07:53:15.998Z,6.65
2022-11-28T07:54:18.625Z,6.66
2022-11-28T07:55:21.275Z,6.71
2022-11-28T07:56:23.925Z,6.75
2022-11-28T07:57:26.572Z,6.79
2022-11-28T07:58:29.273Z,6.81
2022-11-28T07:59:32.290Z,6.82
2022-11-28T08:00:35.160Z,6.83
2022-11-28T08:01:37.966Z,6.83
2022-11-28T08:02:41.147Z,6.84
2022-11-28T08:03:43.830Z,6.84
2022-11-28T08:04:55.616Z,6.86
2022-11-28T08:06:03.435Z,6.88
2022-11-28T08:07:05.723Z,6.91
2022-11-28T08:08:08.468Z,6.9
2022-11-28T08:09:11.135Z,6.9
2022-11-28T08:10:13.782Z,6.94
2022-11-28T08:11:16.404Z,6.96
2022-11-28T08:12:19.029Z,6.99
2022-11-28T08:13:28.212Z,7.02
2022-11-28T08:14:30.390Z,7.06
2022-11-28T08:15:39.627Z,7.09
2022-11-28T08:16:42.018Z,7.12
2022-11-28T08:17:44.791Z,7.15
2022-11-28T08:18:47.418Z,7.18
2022-11-28T08:19:51.760Z,7.22
2022-11-28T08:20:54.355Z,7.25
2022-11-28T08:21:57.021Z,7.28
2022-11-28T08:22:59.652Z,7.31
2022-11-28T08:24:02.306Z,7.33
2022-11-28T08:25:04.988Z,7.37
2022-11-28T08:26:07.613Z,7.39
2022-11-28T08:27:10.231Z,7.42
2022-11-28T08:28:12.901Z,7.43
2022-11-28T08:29:15.568Z,7.45
2022-11-28T08:30:18.818Z,7.46
2022-11-28T08:31:21.571Z,7.47
2022-11-28T08:32:24.590Z,7.51
2022-11-28T08:33:27.238Z,7.53
2022-11-28T08:34:30.136Z,7.56
2022-11-28T08:35:32.782Z,7.58
2022-11-28T08:36:35.594Z,7.59
2022-11-28T08:37:38.522Z,7.59
2022-11-28T08:38:41.189Z,7.58
2022-11-28T08:39:45.088Z,7.61
2022-11-28T08:40:48.650Z,7.64
2022-11-28T08:41:51.270Z,7.68
2022-11-28T08:42:53.913Z,7.68
2022-11-28T08:44:11.084Z,7.67
2022-11-28T08:45:13.610Z,7.7
2022-11-28T08:46:16.500Z,7.74
2022-11-28T08:47:19.267Z,7.78
2022-11-28T08:48:21.898Z,7.81
2022-11-28T08:49:24.520Z,7.84
2022-11-28T08:50:27.192Z,7.88
2022-11-28T08:51:33.505Z,7.88
2022-11-28T08:52:35.902Z,7.91
2022-11-28T08:53:38.547Z,7.94
2022-11-28T08:54:42.316Z,7.97
2022-11-28T08:55:45.574Z,7.99
2022-11-28T08:56:48.446Z,8.03
2022-11-28T08:57:51.087Z,8.04
2022-11-28T08:58:53.751Z,8.07
2022-11-28T08:59:56.405Z,8.09
2022-11-28T09:00:59.281Z,8.14
2022-11-28T09:02:06.452Z,8.16
2022-11-28T09:03:08.727Z,8.19
2022-11-28T09:04:11.729Z,8.23
2022-11-28T09:05:14.510Z,8.25
2022-11-28T09:06:17.265Z,8.26
2022-11-28T09:07:20.120Z,8.3
2022-11-28T09:08:24.456Z,8.32
2022-11-28T09:09:33.147Z,8.35
2022-11-28T09:10:35.420Z,8.39
2022-11-28T09:11:38.077Z,8.41
2022-11-28T09:12:40.723Z,8.43
2022-11-28T09:13:43.759Z,8.47
2022-11-28T09:14:46.381Z,8.48
2022-11-28T09:15:53.935Z,8.51
2022-11-28T09:16:56.496Z,8.53
2022-11-28T09:17:59.217Z,8.55
2022-11-28T09:19:01.881Z,8.59
2022-11-28T09:20:04.618Z,8.6
2022-11-28T09:21:07.382Z,8.62
2022-11-28T09:22:10.061Z,8.65
2022-11-28T09:23:12.690Z,8.68
2022-11-28T09:24:15.364Z,8.68
2022-11-28T09:25:18.034Z,8.7
2022-11-28T09:26:20.701Z,8.7
2022-11-28T09:27:23.399Z,8.72
2022-11-28T09:28:26.027Z,8.73
2022-11-28T09:29:28.666Z,8.75
2022-11-28T09:30:31.563Z,8.76
2022-11-28T09:31:34.580Z,8.77
2022-11-28T09:32:37.384Z,8.77
2022-11-28T09:33:40.061Z,8.77
2022-11-28T09:34:42.674Z,8.79
2022-11-28T09:35:45.435Z,8.82
2022-11-28T09:36:48.209Z,8.84
2022-11-28T09:37:50.913Z,8.84
2022-11-28T09:38:53.573Z,8.85
2022-11-28T09:40:12.912Z,8.86
2022-11-28T09:41:15.893Z,8.87
2022-11-28T09:42:18.464Z,8.88
2022-11-28T09:43:21.128Z,8.88
2022-11-28T09:44:23.791Z,8.9
2022-11-28T09:45:26.440Z,8.91
2022-11-28T09:46:33.814Z,8.94
2022-11-28T09:47:36.172Z,8.95
2022-11-28T09:48:41.336Z,8.94
2022-11-28T09:49:44.674Z,8.93
2022-11-28T09:50:47.594Z,8.95
2022-11-28T09:51:55.829Z,8.98
2022-11-28T09:52:58.320Z,9.01
2022-11-28T09:54:01.049Z,9.02
2022-11-28T09:55:03.731Z,9.04
2022-11-28T09:56:06.359Z,9.07
2022-11-28T09:57:09.281Z,9.09
2022-11-28T09:58:17.453Z,9.11
2022-11-28T09:59:19.940Z,9.12
2022-11-28T10:00:22.623Z,9.15
2022-11-28T10:01:25.337Z,9.19
2022-11-28T10:02:28.370Z,9.2
2022-11-28T10:03:38.212Z,9.23
2022-11-28T10:04:57.783Z,9.27
2022-11-28T10:06:00.344Z,9.29
2022-11-28T10:07:02.973Z,9.31
2022-11-28T10:08:05.745Z,9.32
2022-11-28T10:09:08.436Z,9.34
2022-11-28T10:10:11.267Z,9.34
2022-11-28T10:11:13.961Z,9.35
2022-11-28T10:12:16.615Z,9.38
2022-11-28T10:13:19.432Z,9.39
2022-11-28T10:14:22.046Z,9.39
2022-11-28T10:15:27.971Z,9.39
2022-11-28T10:16:30.908Z,9.41
2022-11-28T10:17:33.602Z,9.42
2022-11-28T10:18:36.238Z,9.43
2022-11-28T10:19:56.137Z,9.44
2022-11-28T10:20:57.146Z,9.44
2022-11-28T10:21:59.864Z,9.45
2022-11-28T10:23:02.689Z,9.46
2022-11-28T10:24:05.312Z,9.46
2022-11-28T10:25:07.953Z,9.48
2022-11-28T10:26:12.106Z,9.48
2022-11-28T10:27:14.543Z,9.5
2022-11-28T10:28:17.228Z,9.52
2022-11-28T10:29:19.884Z,9.53
2022-11-28T10:30:22.487Z,9.55
2022-11-28T10:31:25.959Z,9.58
2022-11-28T10:32:35.269Z,9.59
2022-11-28T10:33:37.545Z,9.63
2022-11-28T10:34:40.172Z,9.65
2022-11-28T10:35:42.801Z,9.66
2022-11-28T10:36:52.009Z,9.68
2022-11-28T10:37:54.284Z,9.7
2022-11-28T10:38:57.174Z,9.71
2022-11-28T10:39:59.846Z,9.72
2022-11-28T10:41:02.466Z,9.75
2022-11-28T10:42:05.150Z,9.78
2022-11-28T10:43:07.815Z,9.8
2022-11-28T10:44:10.520Z,9.81
2022-11-28T10:45:13.152Z,9.83
2022-11-28T10:46:16.097Z,9.85
2022-11-28T10:47:19.397Z,9.87
2022-11-28T10:48:40.271Z,9.9
2022-11-28T10:49:45.920Z,9.93
2022-11-28T10:50:48.294Z,9.95
2022-11-28T10:51:50.956Z,9.99
2022-11-28T10:52:53.600Z,10
2022-11-28T10:53:56.234Z,10.03
2022-11-28T10:54:58.924Z,10.06
2022-11-28T10:56:12.077Z,10.1
2022-11-28T10:57:14.177Z,10.13
2022-11-28T10:58:16.784Z,10.17
2022-11-28T10:59:19.469Z,10.2
2022-11-28T11:00:22.116Z,10.23
2022-11-28T11:01:25.156Z,10.27
2022-11-28T11:02:31.449Z,10.32
2022-11-28T11:03:34.411Z,10.35
2022-11-28T11:04:56.374Z,10.4
2022-11-28T11:06:00.264Z,10.45
2022-11-28T11:07:16.373Z,10.48
2022-11-28T11:08:24.889Z,10.52
2022-11-28T11:09:27.694Z,10.59
2022-11-28T11:10:30.492Z,10.64
2022-11-28T11:11:33.391Z,10.7
2022-11-28T11:12:41.684Z,10.76
2022-11-28T11:13:43.928Z,10.82
2022-11-28T11:14:46.562Z,10.89
2022-11-28T11:15:49.483Z,10.95
2022-11-28T11:16:56.749Z,10.98
2022-11-28T11:18:08.641Z,11.02
2022-11-28T11:19:10.803Z,11.05
2022-11-28T11:21:41.708Z,11.11
2022-11-28T11:22:46.359Z,11.14
2022-11-28T11:23:49.280Z,11.16
2022-11-28T11:24:51.715Z,11.18
2022-11-28T11:25:54.510Z,11.18
2022-11-28T11:26:57.240Z,11.22
2022-11-28T11:27:59.915Z,11.25
2022-11-28T11:29:02.539Z,11.27
2022-11-28T11:30:05.253Z,11.27
2022-11-28T11:31:08.153Z,11.27
2022-11-28T11:32:10.854Z,11.3
2022-11-28T11:33:13.558Z,11.32
2022-11-28T11:34:21.816Z,11.32
2022-11-28T11:35:23.983Z,11.31
2022-11-28T11:36:26.737Z,11.28
2022-11-28T11:37:30.901Z,11.3
2022-11-28T11:38:38.465Z,11.32
2022-11-28T11:39:41.727Z,11.3
2022-11-28T11:40:44.684Z,11.31
2022-11-28T11:41:47.343Z,11.31
2022-11-28T11:42:50.746Z,11.32
2022-11-28T11:43:53.520Z,11.31
2022-11-28T11:44:56.176Z,11.32
2022-11-28T11:45:59.160Z,11.32
2022-11-28T11:47:01.864Z,11.33
2022-11-28T11:48:04.472Z,11.33
2022-11-28T11:49:07.161Z,11.32
2022-11-28T11:50:10.778Z,11.31
2022-11-28T11:51:13.497Z,11.3
2022-11-28T11:52:16.123Z,11.29
2022-11-28T11:53:19.038Z,11.28
2022-11-28T11:54:21.674Z,11.27
2022-11-28T11:55:24.327Z,11.28
2022-11-28T11:56:32.518Z,11.28
2022-11-28T11:57:35.392Z,11.26
2022-11-28T11:58:38.027Z,11.24
2022-11-28T11:59:41.955Z,11.22
2022-11-28T12:00:45.107Z,11.22
2022-11-28T12:01:47.808Z,11.24
2022-11-28T12:02:51.335Z,11.25
2022-11-28T12:03:54.398Z,11.25
2022-11-28T12:04:57.463Z,11.24
2022-11-28T12:06:14.820Z,11.25
2022-11-28T12:07:17.697Z,11.27
2022-11-28T12:08:20.575Z,11.25
2022-11-28T12:09:24.518Z,11.25
2022-11-28T12:10:27.360Z,11.24
2022-11-28T12:11:29.914Z,11.22
2022-11-28T12:12:33.317Z,11.23
2022-11-28T12:13:35.814Z,11.24
2022-11-28T12:14:45.147Z,11.26
2022-11-28T12:15:48.053Z,11.23
2022-11-28T12:16:50.968Z,11.25
2022-11-28T12:17:59.405Z,11.25
2022-11-28T12:19:07.505Z,11.24
2022-11-28T12:20:09.724Z,11.25
2022-11-28T12:21:17.006Z,11.25
2022-11-28T12:22:20.413Z,11.26
2022-11-28T12:23:23.010Z,11.27
2022-11-28T12:24:26.220Z,11.25
2022-11-28T12:25:28.876Z,11.27
2022-11-28T12:26:31.574Z,11.25
2022-11-28T12:27:34.254Z,11.26
2022-11-28T12:28:36.956Z,11.27
2022-11-28T12:29:39.673Z,11.27
2022-11-28T12:30:47.036Z,11.28
2022-11-28T12:31:51.766Z,11.28
2022-11-28T12:32:54.516Z,11.27
2022-11-28T12:33:57.139Z,11.27
2022-11-28T12:35:05.332Z,11.27
2022-11-28T12:36:07.672Z,11.28
2022-11-28T12:37:10.274Z,11.28
2022-11-28T12:38:12.978Z,11.3
2022-11-28T12:39:27.247Z,11.29
2022-11-28T12:40:33.363Z,11.28
2022-11-28T12:41:35.951Z,11.3
2022-11-28T12:42:38.541Z,11.29
2022-11-28T12:43:41.161Z,11.28
2022-11-28T12:44:49.466Z,11.27
2022-11-28T12:46:01.326Z,11.27
2022-11-28T12:47:04.125Z,11.27
2022-11-28T12:48:07.421Z,11.26
2022-11-28T12:49:10.059Z,11.27
2022-11-28T12:50:16.206Z,11.26
2022-11-28T12:51:18.680Z,11.26
2022-11-28T12:52:21.306Z,11.25
2022-11-28T12:53:24.031Z,11.24
2022-11-28T12:54:26.729Z,11.23
2022-11-28T12:55:29.820Z,11.23
2022-11-28T12:56:32.519Z,11.22
2022-11-28T12:57:35.198Z,11.18
2022-11-28T12:58:43.445Z,11.16
2022-11-28T12:59:46.896Z,11.16
2022-11-28T13:00:50.296Z,11.15
2022-11-28T13:01:53.262Z,11.14
2022-11-28T13:02:56.128Z,11.13
2022-11-28T13:04:04.408Z,11.12
2022-11-28T13:05:07.330Z,11.13
2022-11-28T13:06:10.009Z,11.13
2022-11-28T13:07:13.128Z,11.11
2022-11-28T13:08:15.927Z,11.11
2022-11-28T13:09:18.622Z,11.1
2022-11-28T13:10:21.279Z,11.09
2022-11-28T13:11:25.529Z,11.09
2022-11-28T13:12:27.832Z,11.1
2022-11-28T13:13:30.478Z,11.1
2022-11-28T13:14:33.182Z,11.09
2022-11-28T13:15:38.375Z,11.08
2022-11-28T13:16:41.206Z,11.07
2022-11-28T13:17:43.949Z,11.08
2022-11-28T13:18:48.192Z,11.06
2022-11-28T13:19:50.498Z,11.07
2022-11-28T13:20:54.339Z,11.07
2022-11-28T13:21:57.017Z,11.08
2022-11-28T13:23:01.484Z,11.09
2022-11-28T13:24:09.348Z,11.09
2022-11-28T13:25:11.550Z,11.1
2022-11-28T13:26:19.735Z,11.12
2022-11-28T13:28:30.937Z,11.15
2022-11-28T13:29:39.149Z,11.16
2022-11-28T13:30:41.360Z,11.16
2022-11-28T13:31:48.576Z,11.15
2022-11-28T13:32:51.374Z,11.16
2022-11-28T13:33:54.014Z,11.16
2022-11-28T13:34:57.597Z,11.15
2022-11-28T13:39:12.671Z,11.14
2022-11-28T13:40:15.139Z,11.15
2022-11-28T13:42:01.477Z,11.16
2022-11-28T13:43:07.890Z,11.16
2022-11-28T13:44:01.421Z,11.15
2022-11-28T13:45:03.975Z,11.15
2022-11-28T13:46:06.876Z,11.15
2022-11-28T13:47:09.516Z,11.17
2022-11-28T13:48:12.204Z,11.17
2022-11-28T13:49:21.665Z,11.18
2022-11-28T13:50:24.261Z,11.18
2022-11-28T13:51:33.212Z,11.18
2022-11-28T13:52:36.158Z,11.18
2022-11-28T13:53:38.790Z,11.16
2022-11-28T13:54:42.811Z,11.17
2022-11-28T13:55:47.510Z,11.16
2022-11-28T13:56:54.340Z,11.16
2022-11-28T13:57:57.031Z,11.16
2022-11-28T13:59:00.215Z,11.17
2022-11-28T14:00:02.767Z,11.18
2022-11-28T14:01:05.990Z,11.19
2022-11-28T14:02:08.979Z,11.19
2022-11-28T14:03:12.025Z,11.19
2022-11-28T14:04:15.087Z,11.18
2022-11-28T14:05:26.795Z,11.19
2022-11-28T14:06:29.137Z,11.19
2022-11-28T14:07:33.513Z,11.19
2022-11-28T14:08:36.522Z,11.19